Central Sonoma County Latest

37 Stations

15 Minute Data | America/Los_Angeles
as of 5/7/26 1:24 AM PDT
Station Date Time Temp (°F) RH (%) Dew Pt (°F) Wind Spd (mph) Wind Dir (°) Wind Gust (mph) Latest Rain (In) Daily Rain (In) Daily Max Temp (°F) Daily Min Temp (°F)
Windsor-NW (Ranch 8) 5/7/26 0115 52.8   2.1 83   1 47.9   1.8 0.7   0.7 SSE | 147 4.8   3.0 0.00 0.00 52.9   2.1 52.6   2.2
Windsor-East (Ranch 16) 5/7/26 0115 53.1   2.0 91   4 50.7   0.6 3.2   1.2 SE | 127 6.3   2.3 0.00 0.00 53.3   1.9 53.1   2.1
Mark West-North (Ranch 14) 5/7/26 0115 53.2   1.7 90   4 50.3   0.5 2.5   0.6 NW | 325 6.4   2.5 0.00 0.00 53.3   1.7 53.1   1.7
Windsor-SE (Silk Rd) 5/7/26 0115 52.9   2.3 94   6 51.2   0.5 1.5   0.1 SSE | 154 5.1   0.8 0.00 0.00 53.0   2.3 52.8   2.2
Fulton-NW (Ranch 5) 5/7/26 0115 53.3   1.5 92   3 51.0   0.6 3.4   1.2 ESE | 103 6.8   2.3 0.00 0.00 53.4   1.5 53.1   1.6
Bisordi (Fulton) 5/7/26 0115 53.4   1.7 90   2 50.6   1.1 2.9   2.2 SE | 140 8.2   5.5 0.00 0.00 53.5   1.6 53.4   1.7
Windsor-South (Laughlin Rd) 5/4/26 1515 70.3 46 48.5 - - - 0.00 - 71.4 51.0
Fulton-SE (Barnes Rd) 5/7/26 0115 53.6   1.6 89   3 50.4   0.8 3.9   1.1 SE | 132 7.7   2.9 0.00 0.00 53.8   1.5 53.6   1.6
Fulton-SW (Ranch 21) 5/7/26 0115 52.3   2.1 93   4 50.3   0.9 5.2   3.0 SSE | 155 9.1   5.0 0.00 0.00 52.4   1.9 52.2   2.1
NW Santa Rosa (Piner Road) 5/7/26 0115 52.5   2.1 100   0 52.5   2.1 3.3   2.5 ESE | 115 7.1   3.9 0.00 0.00 52.5   2.1 52.4   2.1
River Rd South (Denner Ranch) 5/7/26 0115 51.9   2.4 0   0 -66.6   1.6 4.3   1.7 SE | 127 8.6   5.0 - - 52.2   2.3 51.7   2.2
West Santa Rosa (LOV Vineyard) 5/7/26 0115 52.5   2.1 94   6 50.7   0.5 0.9   0.5 S | 174 5.0   1.9 0.00 0.00 52.6   2.0 52.3   2.2
Guerneville Rd (Prokopakis) 5/7/26 0115 52.9   2.5 94   6 51.2   0.6 - - - 0.00 0.00 53.0   2.5 52.8   2.5
SunnyView Vineyard (SCWC) 5/7/26 0115 52.4   2.0 92   4 50.2   0.7 1.5   0.8 SE | 126 5.9   2.6 0.00 0.00 52.4   2.0 52.3   2.0
Guerneville Rd West (Balletto) 5/7/26 0115 52.5   2.2 96   4 51.5   0.9 3.4   1.7 SSE | 156 5.8   2.2 0.00 0.00 52.6   2.2 52.5   2.2
Sanchietti Ranch 5/7/26 0115 53.8   1.8 92   3 51.7   0.8 3.1   1.4 SSE | 151 7.2   4.2 0.00 0.00 54.0   1.9 53.8   1.9
Occidental Rd (Sebastopol) 5/7/26 0115 51.9   2.6 100   0 51.9   2.5 0.7   0.2 SSE | 165 2.8   0.7 0.00 0.00 52.1   2.5 51.7   2.6
Harper's Rest (Windsor-West) 5/7/26 0115 51.3   2.5 93   6 49.3   0.7 0.8   0.0 ESE | 118 3.1   0.2 0.00 0.00 51.4   2.4 51.3   2.5
Lower Westside Rd (Ranch 12) 5/7/26 0115 52.5   2.6 93   6 50.5   0.8 0.8   0.4 SSE | 167 2.8   1.0 0.00 0.00 52.8   2.6 52.3   2.7
Guerneville (Laughlin Rd) 5/7/26 0115 52.4   1.4 94   2 50.8   0.8 0.1   0.7 SW | 226 1.4   0.6 0.00 0.00 52.4   1.6 52.0   1.9
Korbel (Winery) 5/7/26 0115 53.5   1.5 92   4 51.4   0.3 0.0   0.0 N | 0 0.0   0.0 0.00 0.00 53.6   1.6 53.4   1.6
Forestville (Shone Farms) 5/7/26 0115 52.2   2.6 94   5 50.5   1.1 1.6   0.6 SE | 125 3.4   1.3 0.00 0.00 53.3   2.5 51.6   2.7
Forestville-NE (Ranch 30) 5/7/26 0015 51.2   3.2 96   5 50.1   1.7 0.7   1.4 NE | 54 2.2   1.8 0.00 0.00 75.7   6.4 51.0   0.2
Foggy Bend (Ranch 41) 5/7/26 0115 53.0   2.7 92   4 50.8   1.3 0.9   0.8 E | 93 2.9   2.1 0.00 0.00 53.0   2.6 52.9   2.7
Last Stop 5/7/26 0115 51.7   3.0 96   6 50.5   1.3 0.7   0.7 ESE | 102 2.6   2.2 0.00 0.00 51.7   3.0 51.5   3.2
Green Valley Vineyard 5/7/26 0115 51.2   2.6 96   8 50.2   0.3 0.6   0.6 NE | 40 2.2   2.2 0.00 0.00 51.4   2.6 51.0   2.5
Park Royal 5/7/26 0115 52.5   2.0 93   3 50.5   1.0 - - - 0.00 0.00 52.6   2.0 52.4   2.0
Merino 5/7/26 0115 52.7   2.0 96   3 51.6   1.1 3.6   2.7 S | 174 6.9   4.7 0.00 0.00 52.7   2.0 52.6   2.0
Green Valley (Sanchietti) 5/7/26 0115 52.2   3.0 - - - - - - - 52.4   2.9 50.4   4.5
Keefer Ranch (Green Valley) 5/7/26 0115 51.8   2.9 96   8 50.7   0.5 - - - 0.00 0.00 51.9   2.9 51.6   3.1
Graton-West (Dutton Ranch) 5/7/26 0115 52.4   2.3 100   0 52.4   2.3 1.4   0.4 N | 351 2.5   0.4 0.00 0.00 52.7   2.2 52.3   2.3
Graton-South (Mill Station Rd) 5/7/26 0115 51.3   2.8 96   6 50.3   1.2 0.0   0.0 N | 0 0.0   0.0 0.00 0.00 51.6   2.8 51.0   2.9
Occidental (Horseshoe Bend) 5/7/26 0115 49.8   1.8 98   2 49.2   1.2 - - - 0.00 0.00 49.9   1.8 49.7   1.8
Sexton Valley (Jacqueline's Blk) 5/7/26 0115 51.9   2.3 96   4 50.8   1.3 1.0   0.5 WSW | 241 3.3   2.8 0.00 0.00 52.0   2.2 51.8   2.4
Sebastopol Hills (Burnside Rd) 5/7/26 0115 50.3   2.1 99   2 50.1   1.7 0.7   0.6 SSW | 202 2.1   2.3 0.00 0.00 50.5   2.0 50.0   2.4
Pleasant Hill 5/7/26 0115 50.9   2.3 96   5 50.0   0.7 0.8   0.3 S | 185 2.6   1.0 0.00 0.00 51.1   2.2 50.8   2.3
Seaview/Fort Ross (Hirsch) 5/7/26 0115 56.4   6.5 82   13 51.1   2.5 2.2   0.9 SE | 144 2.8   0.1 0.00 0.00 56.5   6.4 54.7   4.8
Max     56.4 100 52.5 5.2 - 9.1 0.00 0.00 75.7 54.7
Avg     52.4 91 47.3 1.8 - 4.4 0.00 - - -
Min     49.8 0 -66.6 0.0 - 0.0 0.00 0.00 49.9 49.7